SWR858 LSZH-EBBR
Flight info
| Callsign | SWR858 |
|---|---|
| Flight time | N/A |
| Altitude | 30000 |
| Route | VEBIT T10 TORPA DCT EDOPI DCT GIVOR DCT SORAL DCT IBERA DCT DIK Y37 BATTY |
| Aircraft | A359/H-SDE2E3GHIJ3J4J5LM1ORWXY/LB1D1 |
Departure
| Time | 2026-04-26 13:19 |
|---|---|
| Airport | Zürich Airport (LSZH) |
Arrival
| Time | N/A |
|---|---|
| Airport | Brussels Airport (EBBR) |
| Time | Latitude | Longitude | Altitude | Speed | Heading |
|---|---|---|---|---|---|
| 2026-04-26 12:54 | 47.46195 | 8.55100 | 1403 ft | 0 kts | 155° |
| 2026-04-26 12:55 | 47.46190 | 8.55104 | 1412 ft | 0 kts | 155° |
| 2026-04-26 13:02 | 47.46186 | 8.55107 | 1413 ft | 4 kts | 155° |
| 2026-04-26 13:03 | 47.46167 | 8.55120 | 1411 ft | 0 kts | 155° |
| 2026-04-26 13:03 | 47.46190 | 8.55104 | 1412 ft | 0 kts | 155° |
| 2026-04-26 13:05 | 47.46201 | 8.55097 | 1413 ft | 4 kts | 156° |
| 2026-04-26 13:05 | 47.46217 | 8.55086 | 1411 ft | 4 kts | 156° |
| 2026-04-26 13:05 | 47.46240 | 8.55070 | 1412 ft | 2 kts | 152° |
| 2026-04-26 13:06 | 47.46262 | 8.55056 | 1413 ft | 4 kts | 175° |
| 2026-04-26 13:06 | 47.46277 | 8.55056 | 1404 ft | 4 kts | 222° |
| 2026-04-26 13:06 | 47.46284 | 8.55073 | 1413 ft | 4 kts | 268° |
| 2026-04-26 13:06 | 47.46283 | 8.55112 | 1411 ft | 4 kts | 276° |
| 2026-04-26 13:07 | 47.46282 | 8.55133 | 1413 ft | 4 kts | 275° |
| 2026-04-26 13:10 | 47.46282 | 8.55132 | 1403 ft | 1 kts | 275° |
| 2026-04-26 13:11 | 47.46286 | 8.55066 | 1405 ft | 11 kts | 275° |
| 2026-04-26 13:11 | 47.46296 | 8.54926 | 1412 ft | 16 kts | 276° |
| 2026-04-26 13:11 | 47.46285 | 8.54798 | 1413 ft | 11 kts | 222° |
| 2026-04-26 13:11 | 47.46208 | 8.54811 | 1410 ft | 13 kts | 156° |
| 2026-04-26 13:12 | 47.46118 | 8.54871 | 1411 ft | 16 kts | 155° |
| 2026-04-26 13:12 | 47.46013 | 8.54944 | 1411 ft | 18 kts | 155° |
| 2026-04-26 13:12 | 47.45915 | 8.55037 | 1411 ft | 17 kts | 122° |
| 2026-04-26 13:12 | 47.45896 | 8.55210 | 1409 ft | 18 kts | 95° |
| 2026-04-26 13:13 | 47.45882 | 8.55403 | 1405 ft | 20 kts | 95° |
| 2026-04-26 13:13 | 47.45868 | 8.55612 | 1409 ft | 21 kts | 95° |
| 2026-04-26 13:13 | 47.45852 | 8.55832 | 1403 ft | 22 kts | 96° |
| 2026-04-26 13:13 | 47.45835 | 8.56068 | 1404 ft | 24 kts | 96° |
| 2026-04-26 13:14 | 47.45817 | 8.56316 | 1411 ft | 25 kts | 96° |
| 2026-04-26 13:14 | 47.45799 | 8.56579 | 1411 ft | 26 kts | 96° |
| 2026-04-26 13:14 | 47.45784 | 8.56778 | 1403 ft | 16 kts | 96° |
| 2026-04-26 13:14 | 47.45776 | 8.56896 | 1408 ft | 8 kts | 96° |
| 2026-04-26 13:15 | 47.45775 | 8.56911 | 1408 ft | 0 kts | 96° |
| 2026-04-26 13:15 | 47.45774 | 8.56919 | 1406 ft | 4 kts | 96° |
| 2026-04-26 13:15 | 47.45769 | 8.56965 | 1403 ft | 9 kts | 102° |
| 2026-04-26 13:16 | 47.45717 | 8.57032 | 1409 ft | 9 kts | 177° |
| 2026-04-26 13:16 | 47.45665 | 8.56996 | 1412 ft | 8 kts | 246° |
| 2026-04-26 13:16 | 47.45666 | 8.56961 | 1411 ft | 0 kts | 276° |
| 2026-04-26 13:19 | 47.45667 | 8.56939 | 1406 ft | 15 kts | 276° |
| 2026-04-26 13:19 | 47.45710 | 8.56341 | 1408 ft | 101 kts | 276° |
| 2026-04-26 13:19 | 47.45810 | 8.54932 | 1423 ft | 170 kts | 278° |
| 2026-04-26 13:19 | 47.45946 | 8.53193 | 2242 ft | 173 kts | 279° |
| 2026-04-26 13:20 | 47.46113 | 8.51332 | 3060 ft | 193 kts | 279° |
| 2026-04-26 13:20 | 47.46243 | 8.49344 | 3895 ft | 189 kts | 271° |
| 2026-04-26 13:20 | 47.45835 | 8.47595 | 4774 ft | 176 kts | 236° |
| 2026-04-26 13:20 | 47.45006 | 8.46195 | 5214 ft | 191 kts | 227° |
| 2026-04-26 13:21 | 47.44053 | 8.44672 | 5543 ft | 212 kts | 226° |
| 2026-04-26 13:21 | 47.43361 | 8.43587 | 5786 ft | 227 kts | 226° |
| 2026-04-26 13:21 | 47.41812 | 8.41174 | 6253 ft | 255 kts | 226° |
| 2026-04-26 13:21 | 47.40663 | 8.39089 | 6797 ft | 268 kts | 236° |
| 2026-04-26 13:22 | 47.39731 | 8.36679 | 7446 ft | 273 kts | 243° |
| 2026-04-26 13:22 | 47.38927 | 8.34095 | 7983 ft | 284 kts | 247° |
| 2026-04-26 13:22 | 47.38223 | 8.31262 | 8184 ft | 299 kts | 252° |
| 2026-04-26 13:22 | 47.37683 | 8.28363 | 8203 ft | 287 kts | 257° |
| 2026-04-26 13:23 | 47.37332 | 8.25497 | 8208 ft | 283 kts | 262° |
| 2026-04-26 13:23 | 47.37150 | 8.22602 | 8418 ft | 285 kts | 267° |
| 2026-04-26 13:23 | 47.37145 | 8.19670 | 9097 ft | 287 kts | 272° |
| 2026-04-26 13:23 | 47.37085 | 8.16739 | 9891 ft | 286 kts | 260° |
| 2026-04-26 13:24 | 47.36457 | 8.14001 | 10520 ft | 291 kts | 240° |
| 2026-04-26 13:24 | 47.35128 | 8.11664 | 10841 ft | 306 kts | 224° |
| 2026-04-26 13:24 | 47.33508 | 8.09513 | 11143 ft | 321 kts | 220° |
| 2026-04-26 13:24 | 47.31669 | 8.07511 | 11402 ft | 336 kts | 216° |
| 2026-04-26 13:25 | 47.29785 | 8.05369 | 11693 ft | 348 kts | 223° |
| 2026-04-26 13:25 | 47.28244 | 8.02576 | 12131 ft | 354 kts | 241° |
| 2026-04-26 13:25 | 47.27359 | 7.99199 | 12657 ft | 356 kts | 258° |
| 2026-04-26 13:25 | 47.27153 | 7.95559 | 13206 ft | 358 kts | 271° |
| 2026-04-26 13:26 | 47.27350 | 7.91900 | 13787 ft | 360 kts | 277° |
| 2026-04-26 13:26 | 47.27735 | 7.88247 | 14319 ft | 362 kts | 280° |
| 2026-04-26 13:26 | 47.28187 | 7.84594 | 14817 ft | 364 kts | 280° |
| 2026-04-26 13:26 | 47.28638 | 7.80916 | 15309 ft | 366 kts | 280° |
| 2026-04-26 13:27 | 47.29062 | 7.77211 | 15795 ft | 368 kts | 279° |
| 2026-04-26 13:27 | 47.29455 | 7.73477 | 16292 ft | 370 kts | 278° |
| 2026-04-26 13:27 | 47.29704 | 7.70979 | 16617 ft | 372 kts | 278° |
| 2026-04-26 13:27 | 47.30191 | 7.65901 | 17267 ft | 375 kts | 278° |
| 2026-04-26 13:28 | 47.30513 | 7.63398 | 17585 ft | 377 kts | 283° |
| 2026-04-26 13:28 | 47.31188 | 7.59649 | 18061 ft | 379 kts | 285° |
| 2026-04-26 13:28 | 47.31943 | 7.55909 | 18557 ft | 381 kts | 287° |
| 2026-04-26 13:28 | 47.32745 | 7.52172 | 18948 ft | 384 kts | 287° |
| 2026-04-26 13:29 | 47.33576 | 7.48403 | 19314 ft | 387 kts | 288° |
| 2026-04-26 13:29 | 47.34411 | 7.44626 | 19732 ft | 389 kts | 288° |
| 2026-04-26 13:29 | 47.35246 | 7.40827 | 20165 ft | 391 kts | 287° |
| 2026-04-26 13:29 | 47.36080 | 7.37004 | 20584 ft | 393 kts | 287° |
| 2026-04-26 13:30 | 47.36914 | 7.33153 | 20992 ft | 395 kts | 287° |
| 2026-04-26 13:30 | 47.37749 | 7.29287 | 21386 ft | 397 kts | 287° |
| 2026-04-26 13:30 | 47.38591 | 7.25387 | 21774 ft | 400 kts | 287° |
| 2026-04-26 13:30 | 47.39435 | 7.21462 | 22157 ft | 402 kts | 287° |
| 2026-04-26 13:31 | 47.40272 | 7.17521 | 22552 ft | 404 kts | 287° |
| 2026-04-26 13:31 | 47.40981 | 7.13495 | 22943 ft | 406 kts | 283° |
| 2026-04-26 13:31 | 47.41624 | 7.09432 | 23321 ft | 408 kts | 283° |
| 2026-04-26 13:31 | 47.42233 | 7.05387 | 23704 ft | 410 kts | 282° |
| 2026-04-26 13:32 | 47.42836 | 7.01255 | 24011 ft | 412 kts | 282° |
| 2026-04-26 13:32 | 47.43437 | 6.97103 | 24338 ft | 414 kts | 282° |
| 2026-04-26 13:32 | 47.44040 | 6.92925 | 24673 ft | 416 kts | 282° |
| 2026-04-26 13:32 | 47.44647 | 6.88737 | 25002 ft | 418 kts | 283° |
| 2026-04-26 13:33 | 47.45257 | 6.84531 | 25325 ft | 420 kts | 283° |
| 2026-04-26 13:33 | 47.45965 | 6.80333 | 25645 ft | 421 kts | 288° |
| 2026-04-26 13:33 | 47.47030 | 6.76298 | 25998 ft | 423 kts | 296° |
| 2026-04-26 13:33 | 47.48518 | 6.72537 | 26358 ft | 425 kts | 305° |
| 2026-04-26 13:34 | 47.50400 | 6.69228 | 26730 ft | 427 kts | 315° |
| 2026-04-26 13:34 | 47.52714 | 6.66367 | 27123 ft | 429 kts | 324° |
| 2026-04-26 13:34 | 47.55277 | 6.64206 | 27547 ft | 432 kts | 334° |
| 2026-04-26 13:34 | 47.57180 | 6.63113 | 27837 ft | 434 kts | 341° |
| 2026-04-26 13:35 | 47.61123 | 6.61973 | 28411 ft | 440 kts | 354° |
| 2026-04-26 13:35 | 47.64205 | 6.61921 | 28853 ft | 443 kts | 357° |
| 2026-04-26 13:35 | 47.67284 | 6.61670 | 29291 ft | 444 kts | 352° |
| 2026-04-26 13:35 | 47.70370 | 6.61213 | 29744 ft | 446 kts | 352° |
| 2026-04-26 13:36 | 47.73455 | 6.60698 | 30123 ft | 447 kts | 351° |
| 2026-04-26 13:36 | 47.79697 | 6.59514 | 30183 ft | 461 kts | 350° |
| 2026-04-26 13:37 | 47.86062 | 6.58215 | 30183 ft | 461 kts | 350° |
| 2026-04-26 13:37 | 47.92420 | 6.56911 | 30185 ft | 461 kts | 350° |
| 2026-04-26 13:38 | 47.98764 | 6.55501 | 30194 ft | 460 kts | 349° |
| 2026-04-26 13:38 | 48.05080 | 6.53936 | 30189 ft | 460 kts | 348° |
| 2026-04-26 13:39 | 48.11387 | 6.52379 | 30190 ft | 459 kts | 348° |
| 2026-04-26 13:39 | 48.17699 | 6.50849 | 30198 ft | 459 kts | 349° |
| 2026-04-26 13:40 | 48.23972 | 6.49337 | 30204 ft | 459 kts | 348° |
| 2026-04-26 13:40 | 48.30273 | 6.47815 | 30200 ft | 458 kts | 348° |
| 2026-04-26 13:41 | 48.36571 | 6.46290 | 30208 ft | 458 kts | 348° |
| 2026-04-26 13:41 | 48.42867 | 6.44765 | 30201 ft | 458 kts | 348° |
| 2026-04-26 13:42 | 48.49161 | 6.43231 | 30207 ft | 457 kts | 348° |
| 2026-04-26 13:42 | 48.55445 | 6.41695 | 30208 ft | 457 kts | 348° |
| 2026-04-26 13:43 | 48.61726 | 6.40159 | 30211 ft | 457 kts | 348° |
| 2026-04-26 13:43 | 48.68073 | 6.39447 | 30217 ft | 460 kts | 359° |
| 2026-04-26 13:44 | 48.74469 | 6.39940 | 30210 ft | 461 kts | 1° |
| 2026-04-26 13:44 | 48.80871 | 6.40611 | 30214 ft | 461 kts | 1° |
| 2026-04-26 13:45 | 48.87270 | 6.41295 | 30233 ft | 460 kts | 1° |
| 2026-04-26 13:45 | 48.93619 | 6.41955 | 30235 ft | 460 kts | 1° |
| 2026-04-26 13:46 | 48.94697 | 6.42066 | 30238 ft | 460 kts | 1° |